sensor_id;sensor_type;location;lat;lon;timestamp;P1;durP1;ratioP1;P2;durP2;ratioP2
25637;SDS011;13496;51.040;13.680;2024-03-22T00:03:55;2.30;;;2.10;;
25637;SDS011;13496;51.040;13.680;2024-03-22T00:08:57;2.42;;;2.00;;
25637;SDS011;13496;51.040;13.680;2024-03-22T00:13:59;2.40;;;2.20;;
25637;SDS011;13496;51.040;13.680;2024-03-22T00:19:01;3.22;;;2.25;;
25637;SDS011;13496;51.040;13.680;2024-03-22T00:24:04;2.78;;;2.30;;
25637;SDS011;13496;51.040;13.680;2024-03-22T00:29:05;2.08;;;1.88;;
25637;SDS011;13496;51.040;13.680;2024-03-22T00:34:07;2.92;;;2.33;;
25637;SDS011;13496;51.040;13.680;2024-03-22T00:39:09;2.05;;;1.90;;
25637;SDS011;13496;51.040;13.680;2024-03-22T00:44:11;2.63;;;2.13;;
25637;SDS011;13496;51.040;13.680;2024-03-22T00:49:13;2.45;;;2.20;;
25637;SDS011;13496;51.040;13.680;2024-03-22T00:54:15;2.30;;;2.10;;
25637;SDS011;13496;51.040;13.680;2024-03-22T00:59:16;2.05;;;1.95;;
25637;SDS011;13496;51.040;13.680;2024-03-22T01:04:19;2.20;;;1.98;;
25637;SDS011;13496;51.040;13.680;2024-03-22T01:09:21;2.42;;;2.20;;
25637;SDS011;13496;51.040;13.680;2024-03-22T01:14:23;2.60;;;2.38;;
25637;SDS011;13496;51.040;13.680;2024-03-22T01:19:25;2.10;;;1.90;;
25637;SDS011;13496;51.040;13.680;2024-03-22T01:24:26;2.20;;;2.00;;
25637;SDS011;13496;51.040;13.680;2024-03-22T01:29:28;2.17;;;2.03;;
25637;SDS011;13496;51.040;13.680;2024-03-22T01:34:32;1.88;;;1.77;;
25637;SDS011;13496;51.040;13.680;2024-03-22T01:39:36;2.70;;;2.42;;
25637;SDS011;13496;51.040;13.680;2024-03-22T01:44:37;2.58;;;2.38;;
25637;SDS011;13496;51.040;13.680;2024-03-22T01:49:40;2.22;;;2.03;;
25637;SDS011;13496;51.040;13.680;2024-03-22T01:54:42;2.17;;;1.90;;
25637;SDS011;13496;51.040;13.680;2024-03-22T01:59:44;2.10;;;1.90;;
25637;SDS011;13496;51.040;13.680;2024-03-22T02:04:52;2.33;;;2.10;;
25637;SDS011;13496;51.040;13.680;2024-03-22T02:09:54;2.05;;;1.95;;
25637;SDS011;13496;51.040;13.680;2024-03-22T02:14:59;2.45;;;1.85;;
25637;SDS011;13496;51.040;13.680;2024-03-22T02:20:01;1.77;;;1.67;;
25637;SDS011;13496;51.040;13.680;2024-03-22T02:25:05;2.00;;;1.90;;
25637;SDS011;13496;51.040;13.680;2024-03-22T02:30:09;2.25;;;2.08;;
25637;SDS011;13496;51.040;13.680;2024-03-22T02:35:11;2.20;;;2.00;;
25637;SDS011;13496;51.040;13.680;2024-03-22T02:40:13;2.30;;;2.20;;
25637;SDS011;13496;51.040;13.680;2024-03-22T02:45:14;1.90;;;1.80;;
25637;SDS011;13496;51.040;13.680;2024-03-22T02:50:16;2.30;;;2.10;;
25637;SDS011;13496;51.040;13.680;2024-03-22T02:55:18;2.20;;;1.98;;
25637;SDS011;13496;51.040;13.680;2024-03-22T03:00:20;2.33;;;2.13;;
25637;SDS011;13496;51.040;13.680;2024-03-22T03:05:22;2.38;;;2.17;;
25637;SDS011;13496;51.040;13.680;2024-03-22T03:10:25;2.00;;;1.90;;
25637;SDS011;13496;51.040;13.680;2024-03-22T03:15:27;2.13;;;2.00;;
25637;SDS011;13496;51.040;13.680;2024-03-22T03:20:31;2.30;;;2.10;;
25637;SDS011;13496;51.040;13.680;2024-03-22T03:25:33;2.13;;;1.98;;
25637;SDS011;13496;51.040;13.680;2024-03-22T03:30:35;2.22;;;2.05;;
25637;SDS011;13496;51.040;13.680;2024-03-22T03:35:37;2.08;;;1.98;;
25637;SDS011;13496;51.040;13.680;2024-03-22T03:40:38;2.22;;;2.10;;
25637;SDS011;13496;51.040;13.680;2024-03-22T03:45:40;1.92;;;1.83;;
25637;SDS011;13496;51.040;13.680;2024-03-22T03:50:50;1.95;;;1.85;;
25637;SDS011;13496;51.040;13.680;2024-03-22T03:55:53;2.08;;;1.98;;
25637;SDS011;13496;51.040;13.680;2024-03-22T04:00:55;2.83;;;1.92;;
25637;SDS011;13496;51.040;13.680;2024-03-22T04:05:57;2.30;;;2.10;;
25637;SDS011;13496;51.040;13.680;2024-03-22T04:10:59;2.40;;;2.20;;
25637;SDS011;13496;51.040;13.680;2024-03-22T04:16:01;2.33;;;2.13;;
25637;SDS011;13496;51.040;13.680;2024-03-22T04:21:03;2.90;;;2.40;;
25637;SDS011;13496;51.040;13.680;2024-03-22T04:26:05;4.05;;;2.20;;
25637;SDS011;13496;51.040;13.680;2024-03-22T04:31:07;2.42;;;2.22;;
25637;SDS011;13496;51.040;13.680;2024-03-22T04:36:10;2.10;;;2.00;;
25637;SDS011;13496;51.040;13.680;2024-03-22T04:41:12;3.13;;;2.25;;
25637;SDS011;13496;51.040;13.680;2024-03-22T04:46:13;2.35;;;2.15;;
25637;SDS011;13496;51.040;13.680;2024-03-22T04:51:15;2.58;;;2.38;;
25637;SDS011;13496;51.040;13.680;2024-03-22T04:56:17;2.78;;;2.58;;
25637;SDS011;13496;51.040;13.680;2024-03-22T05:01:19;2.95;;;2.17;;
25637;SDS011;13496;51.040;13.680;2024-03-22T05:06:21;2.55;;;2.35;;
25637;SDS011;13496;51.040;13.680;2024-03-22T05:11:22;2.20;;;2.00;;
25637;SDS011;13496;51.040;13.680;2024-03-22T05:16:25;2.72;;;2.53;;
25637;SDS011;13496;51.040;13.680;2024-03-22T05:21:27;2.60;;;2.40;;
25637;SDS011;13496;51.040;13.680;2024-03-22T05:26:29;2.67;;;2.47;;
25637;SDS011;13496;51.040;13.680;2024-03-22T05:31:35;2.63;;;2.42;;
25637;SDS011;13496;51.040;13.680;2024-03-22T05:36:48;3.55;;;3.05;;
25637;SDS011;13496;51.040;13.680;2024-03-22T05:41:50;3.00;;;2.63;;
25637;SDS011;13496;51.040;13.680;2024-03-22T05:46:52;2.47;;;2.10;;
25637;SDS011;13496;51.040;13.680;2024-03-22T05:51:53;2.92;;;2.63;;
25637;SDS011;13496;51.040;13.680;2024-03-22T05:56:55;2.70;;;2.38;;
25637;SDS011;13496;51.040;13.680;2024-03-22T06:01:57;3.75;;;2.75;;
25637;SDS011;13496;51.040;13.680;2024-03-22T06:06:59;2.72;;;2.53;;
25637;SDS011;13496;51.040;13.680;2024-03-22T06:12:01;2.65;;;2.45;;
25637;SDS011;13496;51.040;13.680;2024-03-22T06:17:04;3.50;;;2.70;;
25637;SDS011;13496;51.040;13.680;2024-03-22T06:22:06;2.58;;;2.38;;
25637;SDS011;13496;51.040;13.680;2024-03-22T06:27:08;2.90;;;2.58;;
25637;SDS011;13496;51.040;13.680;2024-03-22T06:32:10;3.63;;;2.47;;
25637;SDS011;13496;51.040;13.680;2024-03-22T06:37:12;4.38;;;2.60;;
25637;SDS011;13496;51.040;13.680;2024-03-22T06:42:14;2.67;;;2.47;;
25637;SDS011;13496;51.040;13.680;2024-03-22T06:47:15;3.78;;;2.75;;
25637;SDS011;13496;51.040;13.680;2024-03-22T06:52:18;2.95;;;2.50;;
25637;SDS011;13496;51.040;13.680;2024-03-22T06:57:20;2.65;;;2.42;;
25637;SDS011;13496;51.040;13.680;2024-03-22T07:02:22;2.80;;;2.47;;
25637;SDS011;13496;51.040;13.680;2024-03-22T07:07:24;3.15;;;2.30;;
25637;SDS011;13496;51.040;13.680;2024-03-22T07:12:26;2.95;;;2.63;;
25637;SDS011;13496;51.040;13.680;2024-03-22T07:17:28;2.65;;;2.45;;
25637;SDS011;13496;51.040;13.680;2024-03-22T07:22:30;3.50;;;2.40;;
25637;SDS011;13496;51.040;13.680;2024-03-22T07:27:32;2.55;;;2.35;;
25637;SDS011;13496;51.040;13.680;2024-03-22T07:32:33;3.40;;;2.80;;
25637;SDS011;13496;51.040;13.680;2024-03-22T07:37:35;2.42;;;2.22;;
25637;SDS011;13496;51.040;13.680;2024-03-22T07:42:37;2.28;;;2.08;;
25637;SDS011;13496;51.040;13.680;2024-03-22T07:47:39;2.63;;;2.20;;
25637;SDS011;13496;51.040;13.680;2024-03-22T07:52:43;2.40;;;2.03;;
25637;SDS011;13496;51.040;13.680;2024-03-22T07:57:45;2.40;;;2.20;;
25637;SDS011;13496;51.040;13.680;2024-03-22T08:02:47;3.78;;;2.10;;
25637;SDS011;13496;51.040;13.680;2024-03-22T08:07:49;2.33;;;2.13;;
25637;SDS011;13496;51.040;13.680;2024-03-22T08:12:50;2.03;;;1.92;;
25637;SDS011;13496;51.040;13.680;2024-03-22T08:17:53;1.90;;;1.80;;
25637;SDS011;13496;51.040;13.680;2024-03-22T08:22:55;2.38;;;2.20;;
25637;SDS011;13496;51.040;13.680;2024-03-22T08:27:57;2.22;;;2.03;;
25637;SDS011;13496;51.040;13.680;2024-03-22T08:33:00;2.13;;;2.03;;
25637;SDS011;13496;51.040;13.680;2024-03-22T08:38:03;2.20;;;2.00;;
25637;SDS011;13496;51.040;13.680;2024-03-22T08:43:06;2.72;;;2.20;;
25637;SDS011;13496;51.040;13.680;2024-03-22T08:48:10;2.63;;;2.17;;
25637;SDS011;13496;51.040;13.680;2024-03-22T08:53:12;2.17;;;1.98;;
25637;SDS011;13496;51.040;13.680;2024-03-22T08:58:15;3.55;;;2.10;;
25637;SDS011;13496;51.040;13.680;2024-03-22T09:03:18;2.40;;;2.20;;
25637;SDS011;13496;51.040;13.680;2024-03-22T09:08:20;2.25;;;2.05;;
25637;SDS011;13496;51.040;13.680;2024-03-22T09:13:23;2.30;;;2.10;;
25637;SDS011;13496;51.040;13.680;2024-03-22T09:18:25;1.95;;;1.85;;
25637;SDS011;13496;51.040;13.680;2024-03-22T09:23:27;2.30;;;2.10;;
25637;SDS011;13496;51.040;13.680;2024-03-22T09:28:29;1.90;;;1.80;;
25637;SDS011;13496;51.040;13.680;2024-03-22T09:33:32;2.10;;;1.90;;
25637;SDS011;13496;51.040;13.680;2024-03-22T09:38:37;2.35;;;2.15;;
25637;SDS011;13496;51.040;13.680;2024-03-22T09:43:40;1.85;;;1.75;;
25637;SDS011;13496;51.040;13.680;2024-03-22T09:48:47;2.00;;;1.80;;
25637;SDS011;13496;51.040;13.680;2024-03-22T09:53:51;2.45;;;2.15;;
25637;SDS011;13496;51.040;13.680;2024-03-22T09:58:53;3.95;;;2.33;;
25637;SDS011;13496;51.040;13.680;2024-03-22T10:03:55;8.68;;;2.53;;
25637;SDS011;13496;51.040;13.680;2024-03-22T10:08:58;4.57;;;2.00;;
25637;SDS011;13496;51.040;13.680;2024-03-22T10:14:00;3.55;;;2.10;;
25637;SDS011;13496;51.040;13.680;2024-03-22T10:19:04;3.53;;;2.10;;
25637;SDS011;13496;51.040;13.680;2024-03-22T10:24:06;5.78;;;2.00;;
25637;SDS011;13496;51.040;13.680;2024-03-22T10:29:10;4.65;;;2.05;;
25637;SDS011;13496;51.040;13.680;2024-03-22T10:34:14;5.43;;;1.90;;
25637;SDS011;13496;51.040;13.680;2024-03-22T10:39:18;4.85;;;2.10;;
25637;SDS011;13496;51.040;13.680;2024-03-22T10:44:20;3.30;;;1.60;;
25637;SDS011;13496;51.040;13.680;2024-03-22T10:49:25;2.83;;;2.00;;
25637;SDS011;13496;51.040;13.680;2024-03-22T10:54:35;2.95;;;2.10;;
25637;SDS011;13496;51.040;13.680;2024-03-22T10:59:41;3.03;;;1.85;;
25637;SDS011;13496;51.040;13.680;2024-03-22T11:04:48;2.88;;;1.73;;
25637;SDS011;13496;51.040;13.680;2024-03-22T11:10:01;1.60;;;1.50;;
25637;SDS011;13496;51.040;13.680;2024-03-22T11:15:05;2.35;;;1.50;;
25637;SDS011;13496;51.040;13.680;2024-03-22T11:20:07;1.92;;;1.83;;
25637;SDS011;13496;51.040;13.680;2024-03-22T11:25:09;2.60;;;1.50;;
25637;SDS011;13496;51.040;13.680;2024-03-22T11:30:11;2.00;;;1.50;;
25637;SDS011;13496;51.040;13.680;2024-03-22T11:35:13;2.00;;;1.80;;
25637;SDS011;13496;51.040;13.680;2024-03-22T11:40:15;1.33;;;1.23;;
25637;SDS011;13496;51.040;13.680;2024-03-22T11:45:17;1.40;;;1.30;;
25637;SDS011;13496;51.040;13.680;2024-03-22T11:50:20;1.55;;;1.45;;
25637;SDS011;13496;51.040;13.680;2024-03-22T11:55:22;2.00;;;1.80;;
25637;SDS011;13496;51.040;13.680;2024-03-22T12:00:28;1.50;;;1.40;;
25637;SDS011;13496;51.040;13.680;2024-03-22T12:05:30;1.30;;;1.20;;
25637;SDS011;13496;51.040;13.680;2024-03-22T12:10:33;2.03;;;1.60;;
25637;SDS011;13496;51.040;13.680;2024-03-22T12:15:36;1.60;;;1.50;;
25637;SDS011;13496;51.040;13.680;2024-03-22T12:20:38;1.75;;;1.40;;
25637;SDS011;13496;51.040;13.680;2024-03-22T12:25:40;3.70;;;1.55;;
25637;SDS011;13496;51.040;13.680;2024-03-22T12:30:42;2.00;;;1.40;;
25637;SDS011;13496;51.040;13.680;2024-03-22T12:35:44;2.67;;;1.48;;
25637;SDS011;13496;51.040;13.680;2024-03-22T12:40:46;2.08;;;1.40;;
25637;SDS011;13496;51.040;13.680;2024-03-22T12:45:48;1.58;;;1.48;;
25637;SDS011;13496;51.040;13.680;2024-03-22T12:50:49;1.50;;;1.40;;
25637;SDS011;13496;51.040;13.680;2024-03-22T12:55:51;1.52;;;1.42;;
25637;SDS011;13496;51.040;13.680;2024-03-22T13:00:53;1.50;;;1.40;;
25637;SDS011;13496;51.040;13.680;2024-03-22T13:05:55;3.38;;;1.88;;
25637;SDS011;13496;51.040;13.680;2024-03-22T13:10:57;1.88;;;1.33;;
25637;SDS011;13496;51.040;13.680;2024-03-22T13:15:59;2.25;;;1.88;;
25637;SDS011;13496;51.040;13.680;2024-03-22T13:21:03;2.22;;;1.20;;
25637;SDS011;13496;51.040;13.680;2024-03-22T13:26:06;3.38;;;1.30;;
25637;SDS011;13496;51.040;13.680;2024-03-22T13:31:08;2.72;;;1.20;;
25637;SDS011;13496;51.040;13.680;2024-03-22T13:36:10;1.90;;;1.25;;
25637;SDS011;13496;51.040;13.680;2024-03-22T13:41:12;1.85;;;1.50;;
25637;SDS011;13496;51.040;13.680;2024-03-22T13:46:14;2.00;;;1.33;;
25637;SDS011;13496;51.040;13.680;2024-03-22T13:51:18;2.47;;;1.67;;
25637;SDS011;13496;51.040;13.680;2024-03-22T13:56:20;1.85;;;1.50;;
25637;SDS011;13496;51.040;13.680;2024-03-22T14:01:22;1.65;;;1.55;;
25637;SDS011;13496;51.040;13.680;2024-03-22T14:06:24;1.40;;;1.30;;
25637;SDS011;13496;51.040;13.680;2024-03-22T14:11:29;1.42;;;1.33;;
25637;SDS011;13496;51.040;13.680;2024-03-22T14:16:32;1.30;;;1.20;;
25637;SDS011;13496;51.040;13.680;2024-03-22T14:21:33;1.70;;;1.50;;
25637;SDS011;13496;51.040;13.680;2024-03-22T14:26:35;4.80;;;1.45;;
25637;SDS011;13496;51.040;13.680;2024-03-22T14:31:43;1.58;;;1.25;;
25637;SDS011;13496;51.040;13.680;2024-03-22T14:36:47;1.80;;;1.33;;
25637;SDS011;13496;51.040;13.680;2024-03-22T14:41:49;1.52;;;1.42;;
25637;SDS011;13496;51.040;13.680;2024-03-22T14:46:50;1.63;;;1.52;;
25637;SDS011;13496;51.040;13.680;2024-03-22T14:51:52;2.50;;;1.23;;
25637;SDS011;13496;51.040;13.680;2024-03-22T14:56:54;1.45;;;1.35;;
25637;SDS011;13496;51.040;13.680;2024-03-22T15:01:56;1.50;;;1.40;;
25637;SDS011;13496;51.040;13.680;2024-03-22T15:06:58;3.42;;;1.60;;
25637;SDS011;13496;51.040;13.680;2024-03-22T15:12:00;1.40;;;1.30;;
25637;SDS011;13496;51.040;13.680;2024-03-22T15:17:02;1.17;;;1.10;;
25637;SDS011;13496;51.040;13.680;2024-03-22T15:22:04;2.20;;;1.40;;
25637;SDS011;13496;51.040;13.680;2024-03-22T15:27:06;1.48;;;1.23;;
25637;SDS011;13496;51.040;13.680;2024-03-22T15:32:08;1.92;;;1.20;;
25637;SDS011;13496;51.040;13.680;2024-03-22T15:37:10;1.95;;;1.52;;
25637;SDS011;13496;51.040;13.680;2024-03-22T15:42:12;1.40;;;1.30;;
25637;SDS011;13496;51.040;13.680;2024-03-22T15:47:14;1.30;;;1.20;;
25637;SDS011;13496;51.040;13.680;2024-03-22T15:52:16;1.33;;;1.23;;
25637;SDS011;13496;51.040;13.680;2024-03-22T15:57:18;2.00;;;1.20;;
25637;SDS011;13496;51.040;13.680;2024-03-22T16:02:19;2.83;;;1.38;;
25637;SDS011;13496;51.040;13.680;2024-03-22T16:07:22;1.17;;;1.08;;
25637;SDS011;13496;51.040;13.680;2024-03-22T16:12:25;1.10;;;1.10;;
25637;SDS011;13496;51.040;13.680;2024-03-22T16:17:27;1.10;;;1.10;;
25637;SDS011;13496;51.040;13.680;2024-03-22T16:22:29;1.30;;;1.20;;
25637;SDS011;13496;51.040;13.680;2024-03-22T16:27:31;1.30;;;1.20;;
25637;SDS011;13496;51.040;13.680;2024-03-22T16:32:33;1.48;;;1.05;;
25637;SDS011;13496;51.040;13.680;2024-03-22T16:37:35;1.33;;;1.20;;
25637;SDS011;13496;51.040;13.680;2024-03-22T16:42:46;1.65;;;1.50;;
25637;SDS011;13496;51.040;13.680;2024-03-22T16:47:52;1.65;;;1.40;;
25637;SDS011;13496;51.040;13.680;2024-03-22T16:52:54;2.13;;;1.63;;
25637;SDS011;13496;51.040;13.680;2024-03-22T16:57:56;1.55;;;1.20;;
25637;SDS011;13496;51.040;13.680;2024-03-22T17:03:02;1.70;;;1.38;;
25637;SDS011;13496;51.040;13.680;2024-03-22T17:08:05;1.60;;;1.50;;
25637;SDS011;13496;51.040;13.680;2024-03-22T17:13:07;1.92;;;1.35;;
25637;SDS011;13496;51.040;13.680;2024-03-22T17:18:09;2.63;;;1.45;;
25637;SDS011;13496;51.040;13.680;2024-03-22T17:23:13;2.85;;;1.73;;
25637;SDS011;13496;51.040;13.680;2024-03-22T17:28:15;2.03;;;1.70;;
25637;SDS011;13496;51.040;13.680;2024-03-22T17:33:17;2.30;;;1.55;;
25637;SDS011;13496;51.040;13.680;2024-03-22T17:38:18;3.40;;;1.52;;
25637;SDS011;13496;51.040;13.680;2024-03-22T17:43:20;2.70;;;1.50;;
25637;SDS011;13496;51.040;13.680;2024-03-22T17:48:23;2.05;;;1.45;;
25637;SDS011;13496;51.040;13.680;2024-03-22T17:53:25;2.80;;;1.50;;
25637;SDS011;13496;51.040;13.680;2024-03-22T17:58:27;1.73;;;1.40;;
25637;SDS011;13496;51.040;13.680;2024-03-22T18:03:29;4.35;;;1.60;;
25637;SDS011;13496;51.040;13.680;2024-03-22T18:08:31;2.70;;;1.70;;
25637;SDS011;13496;51.040;13.680;2024-03-22T18:13:33;1.77;;;1.55;;
25637;SDS011;13496;51.040;13.680;2024-03-22T18:18:37;4.38;;;1.55;;
25637;SDS011;13496;51.040;13.680;2024-03-22T18:23:39;4.07;;;1.90;;
25637;SDS011;13496;51.040;13.680;2024-03-22T18:28:41;3.55;;;1.83;;
25637;SDS011;13496;51.040;13.680;2024-03-22T18:33:43;4.03;;;1.80;;
25637;SDS011;13496;51.040;13.680;2024-03-22T18:38:45;2.97;;;1.63;;
25637;SDS011;13496;51.040;13.680;2024-03-22T18:43:47;4.88;;;1.90;;
25637;SDS011;13496;51.040;13.680;2024-03-22T18:48:48;2.92;;;1.67;;
25637;SDS011;13496;51.040;13.680;2024-03-22T18:53:51;3.38;;;2.10;;
25637;SDS011;13496;51.040;13.680;2024-03-22T18:58:54;3.17;;;1.83;;
25637;SDS011;13496;51.040;13.680;2024-03-22T19:03:56;3.28;;;2.03;;
25637;SDS011;13496;51.040;13.680;2024-03-22T19:08:58;4.45;;;2.20;;
25637;SDS011;13496;51.040;13.680;2024-03-22T19:14:00;3.50;;;2.30;;
25637;SDS011;13496;51.040;13.680;2024-03-22T19:19:03;6.57;;;2.20;;
25637;SDS011;13496;51.040;13.680;2024-03-22T19:24:05;5.28;;;2.03;;
25637;SDS011;13496;51.040;13.680;2024-03-22T19:29:10;5.35;;;2.15;;
25637;SDS011;13496;51.040;13.680;2024-03-22T19:34:13;2.85;;;2.20;;
25637;SDS011;13496;51.040;13.680;2024-03-22T19:39:15;3.83;;;2.10;;
25637;SDS011;13496;51.040;13.680;2024-03-22T19:44:17;4.10;;;1.90;;
25637;SDS011;13496;51.040;13.680;2024-03-22T19:49:19;4.88;;;2.45;;
25637;SDS011;13496;51.040;13.680;2024-03-22T19:54:23;4.15;;;2.33;;
25637;SDS011;13496;51.040;13.680;2024-03-22T19:59:25;7.22;;;2.58;;
25637;SDS011;13496;51.040;13.680;2024-03-22T20:04:26;3.55;;;2.22;;
25637;SDS011;13496;51.040;13.680;2024-03-22T20:09:28;6.72;;;2.42;;
25637;SDS011;13496;51.040;13.680;2024-03-22T20:14:30;6.78;;;2.50;;
25637;SDS011;13496;51.040;13.680;2024-03-22T20:19:34;6.65;;;2.75;;
25637;SDS011;13496;51.040;13.680;2024-03-22T20:24:35;5.38;;;2.55;;
25637;SDS011;13496;51.040;13.680;2024-03-22T20:29:39;3.15;;;2.22;;
25637;SDS011;13496;51.040;13.680;2024-03-22T20:34:41;5.50;;;2.55;;
